• Join FlightAware (Why Join?)
  • Login
  • US Flag 
09:05AM EDT


 

Airport Tracker/Info


-or-


 

Live Flight TrackerFlight Track Log ✈ VH-ZBD ✈ 07-Jun-2013 ✈ YBMA / ISA - YSDU / DBO

Flight Track Log - Related Links

Times and Time Zones

All times are in EDT time to prevent confusion due to time zone crossing. See the VH-ZBD flight status page for this flight to view local times or setup timezone preferences in your user account.

Time Position Orientation Groundspeed Altitude Reporting Facility
EDT Latitude Longitude Course Direction KTS MPH feet Rate Location/Type
01:13AM -20.7958 139.5876 324° Northwest 29,000  Level Aus ATC (Calculated)
01:13AM -20.7440 139.5470 150° Southeast 124 143 5,100 -32,700 Descending FlightAware
01:14AM -20.7550 139.5540 149° Southeast 127 146 5,600 1,500 Climbing FlightAware
01:14AM -20.8396 139.6215 323° Northwest 29,000 1,800 Climbing Aus ATC (Calculated)
01:14AM -20.7650 139.5620 143° Southeast 125 144 6,200 -38,100 Descending FlightAware
01:14AM -20.7750 139.5700 143° Southeast 117 135 6,800 1,380 Climbing FlightAware
01:15AM -20.7870 139.5820 143° Southeast 124 143 7,400 1,260 Climbing FlightAware
01:15AM -20.8010 139.5930 144° Southeast 128 147 8,000 1,260 Climbing FlightAware
01:16AM -20.8150 139.6020 149° Southeast 131 151 8,600 1,140 Climbing FlightAware
01:16AM -20.9707 139.7235 324° Northwest 29,000 1,020 Climbing Aus ATC (Calculated)
01:16AM -20.8290 139.6130 144° Southeast 134 154 9,100 -23,640 Descending FlightAware
01:17AM -20.8440 139.6260 144° Southeast 140 161 9,700 1,020 Climbing FlightAware
01:17AM -20.8690 139.6450 145° Southeast 153 176 10,400 1,020 Climbing FlightAware
01:18AM -20.8920 139.6620 145° Southeast 159 183 11,200 1,140 Climbing FlightAware
01:19AM -20.9170 139.6810 145° Southeast 162 186 12,000 1,260 Climbing FlightAware
01:19AM -20.9440 139.7010 145° Southeast 163 188 13,000 1,260 Climbing FlightAware
01:20AM -20.9690 139.7220 142° Southeast 169 194 13,800 1,200 Climbing FlightAware
01:21AM -20.9970 139.7430 145° Southeast 172 198 14,700 1,140 Climbing FlightAware
01:22AM -21.0260 139.7660 143° Southeast 176 203 15,500 1,080 Climbing FlightAware
01:22AM -21.0520 139.7880 142° Southeast 179 206 16,300 1,020 Climbing FlightAware
01:23AM -21.0820 139.8110 144° Southeast 184 212 17,000 1,020 Climbing FlightAware
01:24AM -21.1110 139.8340 144° Southeast 188 216 17,800 900 Climbing FlightAware
01:24AM -21.1410 139.8560 146° Southeast 200 230 18,300 960 Climbing FlightAware
01:25AM -21.1710 139.8800 143° Southeast 199 229 19,100 1,020 Climbing FlightAware
01:26AM -21.2030 139.9050 144° Southeast 207 238 19,700 780 Climbing FlightAware
01:26AM -21.2370 139.9310 145° Southeast 209 241 20,300 840 Climbing FlightAware
01:27AM -21.5383 140.1676 324° Northwest 29,000 900 Climbing Aus ATC (Calculated)
01:27AM -21.2690 139.9570 145° Southeast 211 243 20,900 -6,120 Descending FlightAware
01:28AM -21.3040 139.9840 144° Southeast 209 241 21,500 780 Climbing FlightAware
01:29AM -21.3340 140.0090 142° Southeast 211 243 22,000 720 Climbing FlightAware
01:29AM -21.3660 140.0340 144° Southeast 214 246 22,500 720 Climbing FlightAware
01:30AM -21.4030 140.0620 145° Southeast 216 249 23,100 720 Climbing FlightAware
01:31AM -21.4380 140.0880 145° Southeast 217 250 23,600 720 Climbing FlightAware
01:31AM -21.7999 140.3736 324° Northwest 29,000 780 Climbing Aus ATC (Calculated)
01:31AM -21.4690 140.1120 144° Southeast 219 252 24,100 -4,860 Descending FlightAware
01:32AM -21.5060 140.1430 144° Southeast 223 257 24,500 600 Climbing FlightAware
01:33AM -21.5390 140.1690 144° Southeast 219 252 25,000 600 Climbing FlightAware
01:33AM -21.5760 140.1960 146° Southeast 224 258 25,400 480 Climbing FlightAware
01:34AM -21.9306 140.4770 324° Northwest 29,000 420 Climbing Aus ATC (Calculated)
01:34AM -21.6090 140.2240 146° Southeast 227 261 25,700 -2,160 Descending FlightAware
01:35AM -21.9741 140.5115 324° Northwest 29,000 600 Climbing Aus ATC (Calculated)
01:35AM -21.6470 140.2550 143° Southeast 224 258 26,200 -2,640 Descending FlightAware
01:36AM -21.6840 140.2810 147° Southeast 227 261 26,500 420 Climbing FlightAware
01:36AM -21.7190 140.3060 147° Southeast 234 269 26,800 480 Climbing FlightAware
01:37AM -22.1047 140.6150 324° Northwest 29,000 540 Climbing Aus ATC (Calculated)
01:37AM -22.1047 140.6150 324° Northwest 29,000 -6,000 Level Aus ATC (Calculated)
01:37AM -21.7550 140.3380 140° Southeast 232 267 27,200 -1,560 Descending FlightAware
01:38AM -21.7900 140.3660 143° Southeast 230 265 27,500 420 Climbing FlightAware
01:38AM -21.8290 140.3960 143° Southeast 230 265 27,800 420 Climbing FlightAware
01:39AM -21.8640 140.4210 146° Southeast 232 267 28,100 300 Climbing FlightAware
01:40AM -21.9020 140.4510 144° Southeast 233 268 28,300 300 Climbing FlightAware
01:40AM -21.9380 140.4820 141° Southeast 237 273 28,600 360 Climbing FlightAware
01:41AM -21.9730 140.5110 142° Southeast 237 273 28,800 300 Climbing FlightAware
01:42AM -22.0140 140.5420 145° Southeast 240 276 29,100 300 Climbing FlightAware
01:43AM -22.0510 140.5710 144° Southeast 242 278 29,300 240 Climbing FlightAware
01:43AM -22.0890 140.6010 144° Southeast 244 281 29,500 360 Climbing FlightAware
01:44AM -22.1250 140.6310 144° Southeast 245 282 29,800 300 Climbing FlightAware
01:45AM -22.1600 140.6580 144° Southeast 245 282 29,900 120 Climbing FlightAware
01:45AM -22.2060 140.6930 145° Southeast 255 293 30,000 60 Climbing FlightAware
01:46AM -22.2440 140.7240 143° Southeast 263 303 30,000  Level FlightAware
01:47AM -22.6264 141.0312 323° Northwest 29,000  Descending Aus ATC (Calculated)
01:47AM -22.2890 140.7600 143° Southeast 268 308 30,000 1,140 Climbing FlightAware
01:48AM -22.3310 140.7940 143° Southeast 271 312 30,000  Level FlightAware
01:48AM -22.3550 140.8130 144° Southeast 273 314 30,000  Level FlightAware
01:49AM -22.3980 140.8480 143° Southeast 275 316 30,000  Level FlightAware
01:49AM -22.4460 140.8860 144° Southeast 277 319 30,000  Level FlightAware
01:50AM -22.4780 140.9120 143° Southeast 278 320 30,000  Level FlightAware
01:51AM -22.5260 140.9500 144° Southeast 279 321 30,000  Level FlightAware
01:51AM -22.5710 140.9860 144° Southeast 283 326 30,000  Level FlightAware
01:52AM -22.6200 141.0250 144° Southeast 288 331 30,000  Level FlightAware
01:53AM -22.6630 141.0600 143° Southeast 290 334 30,000  Level FlightAware
01:53AM -22.9735 141.3105 323° Northwest 29,000  Descending Aus ATC (Calculated)
01:53AM -23.0169 141.3455 323° Northwest 29,000 1,560 Level Aus ATC (Calculated)
01:54AM -22.7110 141.0980 143° Southeast 292 336 30,000 1,260 Climbing FlightAware
01:54AM -23.0602 141.3805 323° Northwest 29,000  Descending Aus ATC (Calculated)
01:54AM -22.7490 141.1290 143° Southeast 290 334 30,000 960 Climbing FlightAware
01:55AM -22.7990 141.1690 143° Southeast 290 334 30,000  Level FlightAware
01:56AM -22.8600 141.2180 143° Southeast 289 333 30,000  Level FlightAware
01:56AM -23.1469 141.4506 323° Northwest 29,000  Descending Aus ATC (Calculated)
01:57AM -22.9070 141.2560 143° Southeast 289 333 30,000 720 Climbing FlightAware
01:57AM -22.9540 141.2940 143° Southeast 288 331 30,000  Level FlightAware
01:58AM -22.9970 141.3280 144° Southeast 288 331 30,000  Level FlightAware
01:58AM -23.2768 141.5559 323° Northwest 29,000  Descending Aus ATC (Calculated)
01:59AM -23.0380 141.3610 144° Southeast 287 330 30,000 720 Climbing FlightAware
01:59AM -23.0860 141.4000 143° Southeast 287 330 30,000  Level FlightAware
02:00AM -23.1330 141.4380 143° Southeast 287 330 30,000  Level FlightAware
02:01AM -23.1750 141.4730 143° Southeast 287 330 30,000  Level FlightAware
02:02AM -23.2240 141.5120 144° Southeast 286 329 30,000  Level FlightAware
02:02AM -23.2660 141.5470 143° Southeast 286 329 30,000  Level FlightAware
02:03AM -23.3090 141.5810 144° Southeast 285 328 30,000  Level FlightAware
02:04AM -23.3550 141.6190 143° Southeast 282 325 30,000  Level FlightAware
02:04AM -23.3980 141.6540 143° Southeast 277 319 30,000  Level FlightAware
02:05AM -23.6692 141.8770 323° Northwest 29,000  Descending Aus ATC (Calculated)
02:05AM -23.4410 141.6890 143° Southeast 275 316 30,000 720 Climbing FlightAware
02:06AM -23.4900 141.7290 143° Southeast 273 314 30,000  Level FlightAware
02:06AM -23.7422 141.9372 323° Northwest 29,000  Descending Aus ATC (Calculated)
02:07AM -23.5400 141.7700 143° Southeast 271 312 30,000 1,020 Climbing FlightAware
02:07AM -23.5800 141.8030 143° Southeast 269 310 30,000  Level FlightAware
02:08AM -23.8882 142.0579 323° Northwest 29,000  Descending Aus ATC (Calculated)
02:08AM -23.6170 141.8340 142° Southeast 269 310 30,000 900 Climbing FlightAware
02:09AM -23.6650 141.8730 142° Southeast 269 310 30,000  Level FlightAware
02:10AM -23.7170 141.9160 143° Southeast 268 308 30,000  Level FlightAware
02:10AM -24.0341 142.1788 323° Northwest 29,000  Descending Aus ATC (Calculated)
02:10AM -24.0341 142.1788 323° Northwest 29,000 9,960 Level Aus ATC (Calculated)
02:10AM -23.7470 141.9430 143° Southeast 268 308 30,000 1,140 Climbing FlightAware
02:11AM -23.8040 141.9880 144° Southeast 269 310 30,000  Level FlightAware
02:12AM -23.8460 142.0220 143° Southeast 267 307 30,000  Level FlightAware
02:12AM -23.8840 142.0540 142° Southeast 266 306 30,000  Level FlightAware
02:13AM -23.9310 142.0920 144° Southeast 270 311 30,000  Level FlightAware
02:14AM -23.9710 142.1260 142° Southeast 269 310 30,000  Level FlightAware
02:15AM -24.0110 142.1590 143° Southeast 271 312 30,000  Level FlightAware
02:15AM -24.0530 142.1940 143° Southeast 271 312 30,000  Level FlightAware
02:16AM -24.0970 142.2300 143° Southeast 271 312 30,000  Level FlightAware
02:17AM -24.1380 142.2640 143° Southeast 271 312 30,000  Level FlightAware
02:17AM -24.1810 142.3000 143° Southeast 273 314 30,000  Level FlightAware
02:18AM -24.2230 142.3350 143° Southeast 274 315 30,000  Level FlightAware
02:19AM -24.2660 142.3710 143° Southeast 274 315 30,000  Level FlightAware
02:19AM -24.3050 142.4040 142° Southeast 274 315 30,000  Level FlightAware
02:20AM -24.3510 142.4420 143° Southeast 274 315 30,000  Level FlightAware
02:21AM -24.3960 142.4800 142° Southeast 276 318 30,000  Level FlightAware
02:22AM -24.4370 142.5140 143° Southeast 276 318 30,000  Level FlightAware
02:22AM -24.4820 142.5520 142° Southeast 276 318 30,000  Level FlightAware
02:23AM -24.5200 142.5830 143° Southeast 276 318 30,000  Level FlightAware
02:24AM -24.5630 142.6200 142° Southeast 277 319 30,000  Level FlightAware
02:24AM -24.6100 142.6590 143° Southeast 278 320 30,000  Level FlightAware
02:25AM -24.6500 142.6930 142° Southeast 278 320 30,000  Level FlightAware
02:26AM -24.6920 142.7280 143° Southeast 278 320 30,000  Level FlightAware
02:26AM -24.7380 142.7670 142° Southeast 278 320 30,000  Level FlightAware
02:27AM -24.7800 142.8020 143° Southeast 278 320 30,000  Level FlightAware
02:28AM -24.8250 142.8400 143° Southeast 278 320 30,000  Level FlightAware
02:29AM -24.8650 142.8740 142° Southeast 278 320 30,000  Level FlightAware
02:29AM -24.9040 142.9070 142° Southeast 278 320 30,000  Level FlightAware
02:30AM -24.9510 142.9460 143° Southeast 277 319 30,000  Level FlightAware
02:31AM -24.9920 142.9810 142° Southeast 276 318 30,000  Level FlightAware
02:31AM -25.0370 143.0190 142° Southeast 278 320 30,000  Level FlightAware
02:32AM -25.0780 143.0540 142° Southeast 276 318 30,000  Level FlightAware
02:32AM -25.4149 143.3414 322° Northwest 29,000  Descending Aus ATC (Calculated)
02:33AM -25.1250 143.0940 142° Southeast 276 318 30,000 840 Climbing FlightAware
02:33AM -25.1650 143.1280 142° Southeast 276 318 30,000  Level FlightAware
02:34AM -25.2050 143.1620 142° Southeast 275 316 30,000  Level FlightAware
02:35AM -25.2500 143.2000 143° Southeast 274 315 30,000  Level FlightAware
02:36AM -25.2920 143.2360 142° Southeast 274 315 30,000  Level FlightAware
02:36AM -25.3340 143.2720 142° Southeast 274 315 30,000  Level FlightAware
02:37AM -25.3770 143.3090 142° Southeast 275 316 30,000  Level FlightAware
02:38AM -25.4170 143.3420 143° Southeast 275 316 30,000  Level FlightAware
02:38AM -25.4640 143.3820 142° Southeast 277 319 30,000  Level FlightAware
02:39AM -25.5040 143.4170 142° Southeast 280 322 30,000  Level FlightAware
02:40AM -25.5500 143.4560 143° Southeast 283 326 30,000  Level FlightAware
02:40AM -25.5920 143.4920 142° Southeast 286 329 30,000  Level FlightAware
02:41AM -25.6370 143.5300 143° Southeast 285 328 30,000  Level FlightAware
02:42AM -25.6770 143.5650 142° Southeast 283 326 30,000  Level FlightAware
02:43AM -25.7250 143.6060 142° Southeast 282 325 30,000  Level FlightAware
02:43AM -25.7640 143.6400 142° Southeast 281 323 30,000  Level FlightAware
02:44AM -25.8080 143.6770 143° Southeast 280 322 30,000  Level FlightAware
02:44AM -26.2030 144.0155 322° Northwest 29,000  Descending Aus ATC (Calculated)
02:44AM -26.2030 144.0156 322° Northwest 29,000 1,860 Level Aus ATC (Calculated)
02:45AM -25.8510 143.7140 143° Southeast 278 320 30,000 780 Climbing FlightAware
02:45AM -25.8960 143.7530 142° Southeast 279 321 30,000  Level FlightAware
02:46AM -25.9360 143.7870 143° Southeast 278 320 30,000  Level FlightAware
02:47AM -25.9820 143.8260 143° Southeast 280 322 30,000  Level FlightAware
02:48AM -26.0400 143.8750 143° Southeast 279 321 30,000  Level FlightAware
02:48AM -26.0790 143.9080 143° Southeast 278 320 30,000  Level FlightAware
02:49AM -26.1260 143.9490 142° Southeast 279 321 30,000  Level FlightAware
02:50AM -26.1630 143.9800 143° Southeast 280 322 30,000  Level FlightAware
02:50AM -26.2030 144.0150 142° Southeast 280 322 30,000  Level FlightAware
02:51AM -26.2410 144.0480 142° Southeast 280 322 30,000  Level FlightAware
02:52AM -26.2850 144.0860 142° Southeast 280 322 30,000  Level FlightAware
02:52AM -26.3320 144.1260 143° Southeast 280 322 30,000  Level FlightAware
02:53AM -26.3760 144.1640 142° Southeast 282 325 30,000  Level FlightAware
02:54AM -26.4210 144.2030 142° Southeast 281 323 30,000  Level FlightAware
02:55AM -26.4620 144.2370 143° Southeast 282 325 30,000  Level FlightAware
02:55AM -26.5070 144.2760 142° Southeast 282 325 30,000  Level FlightAware
02:56AM -26.5450 144.3100 141° Southeast 281 323 30,000  Level FlightAware
02:57AM -26.5910 144.3490 143° Southeast 281 323 30,000  Level FlightAware
02:57AM -26.6350 144.3870 142° Southeast 281 323 30,000  Level FlightAware
02:58AM -26.6670 144.4150 142° Southeast 281 323 30,000  Level FlightAware
02:59AM -26.7340 144.4730 142° Southeast 280 322 30,000  Level FlightAware
03:00AM -26.7790 144.5120 142° Southeast 281 323 30,000  Level FlightAware
03:00AM -26.8230 144.5500 142° Southeast 281 323 30,000  Level FlightAware
03:01AM -26.8610 144.5830 142° Southeast 281 323 30,000  Level FlightAware
03:02AM -26.9260 144.6400 142° Southeast 281 323 30,000  Level FlightAware
03:03AM -26.9570 144.6670 142° Southeast 281 323 30,000  Level FlightAware
03:04AM -26.9990 144.7040 142° Southeast 281 323 30,000  Level FlightAware
03:04AM -27.5464 145.1855 322° Northwest 29,000  Descending Aus ATC (Calculated)
03:04AM -27.0300 144.7310 142° Southeast 281 323 30,000 1,200 Climbing FlightAware
03:05AM -27.0720 144.7680 142° Southeast 281 323 30,000  Level FlightAware
03:06AM -27.1030 144.7960 142° Southeast 281 323 30,000  Level FlightAware
03:06AM -27.1450 144.8320 143° Southeast 281 323 30,000  Level FlightAware
03:07AM -27.1760 144.8600 141° Southeast 281 323 30,000  Level FlightAware
03:08AM -27.2300 144.9060 143° Southeast 281 323 30,000  Level FlightAware
03:09AM -27.2610 144.9340 141° Southeast 281 323 30,000  Level FlightAware
03:09AM -27.3030 144.9710 142° Southeast 281 323 30,000  Level FlightAware
03:10AM -27.3340 144.9980 142° Southeast 281 323 30,000  Level FlightAware
03:11AM -27.3870 145.0450 142° Southeast 281 323 30,000  Level FlightAware
03:14AM -27.5360 145.1765 142° Southeast  Level FlightAware Approximate
03:15AM -27.5940 145.2278 142° Southeast  Level FlightAware Approximate
03:16AM -27.6520 145.2791 142° Southeast  Level FlightAware Approximate
03:17AM -27.7099 145.3306 142° Southeast  Level FlightAware Approximate
03:18AM -27.7679 145.3820 142° Southeast  Level FlightAware Approximate
03:18AM -28.5238 145.9165 152° Southeast 29,000  Level Aus ATC (Calculated)
03:19AM -27.8258 145.4336 142° Southeast  Level FlightAware Approximate
03:19AM -28.5844 145.9534 152° Southeast 29,000  Level Aus ATC (Calculated)
03:20AM -28.4306 145.8600 332° Northwest  Level FlightAware Approximate
03:21AM -28.4912 145.8968 332° Northwest  Level FlightAware Approximate
03:21AM -28.7056 146.0271 152° Southeast 29,000  Level Aus ATC (Calculated)
03:23AM -28.8031 146.0950 152° Southeast  Level Estimated
03:24AM -28.8682 146.1344 152° Southeast  Level FlightAware Approximate
03:25AM -28.9334 146.1738 152° Southeast  Level FlightAware Approximate
03:26AM -28.9985 146.2133 152° Southeast  Level FlightAware Approximate
03:27AM -29.0636 146.2528 152° Southeast  Level FlightAware Approximate
03:28AM -29.1287 146.2924 152° Southeast  Level FlightAware Approximate
03:29AM -29.1938 146.3320 152° Southeast  Level FlightAware Approximate
03:30AM -29.2589 146.3716 152° Southeast  Level FlightAware Approximate
03:31AM -29.3240 146.4114 152° Southeast  Level FlightAware Approximate
03:32AM -29.3890 146.4511 152° Southeast  Level FlightAware Approximate
03:32AM -29.4314 146.4731 152° Southeast 29,000  Level Aus ATC (Calculated)
03:32AM -29.4919 146.5106 152° Southeast 29,000 60 Level Aus ATC (Calculated)
03:34AM -29.5833 146.5673 152° Southeast  Level FlightAware Approximate
03:35AM -29.6478 146.6075 152° Southeast  Level FlightAware Approximate
03:35AM -29.6127 146.5856 152° Southeast 29,000  Level Aus ATC (Calculated)
03:37AM -29.7374 146.6633 152° Southeast  Level FlightAware Approximate
03:38AM -29.8018 146.7035 152° Southeast  Level FlightAware Approximate
03:39AM -29.8663 146.7438 152° Southeast  Level FlightAware Approximate
03:39AM -29.9145 146.7740 152° Southeast 29,000  Level Aus ATC (Calculated)
03:39AM -29.9145 146.7740 152° Southeast 29,000 120 Level Aus ATC (Calculated)
03:39AM -29.9145 146.7740 152° Southeast 29,000 120 Level Aus ATC (Calculated)
03:41AM -30.0133 146.8360 152° Southeast  Level FlightAware Approximate
03:42AM -29.9488 146.7955 331° Northwest  Level FlightAware Approximate
03:43AM -30.0133 146.8360 151° Southeast  Level FlightAware Approximate
03:44AM -29.9488 146.7955 331° Northwest  Level FlightAware Approximate
03:45AM -30.0133 146.8360 151° Southeast  Level FlightAware Approximate
03:46AM -29.9488 146.7955 331° Northwest  Level FlightAware Approximate
03:47AM -30.0133 146.8360 151° Southeast  Level FlightAware Approximate
03:48AM -30.1121 146.9168 147° Southeast  Level FlightAware Approximate
03:48AM -29.9791 146.8129 147° Southeast 301 346 30,200  Level Aus ATC (RADAR)
03:49AM -30.0683 146.8813 146° Southeast 299 344 30,200  Level Aus ATC (RADAR)
03:50AM -30.0953 146.9035 145° Southeast 296 341 30,200  Level Aus ATC (RADAR)
03:51AM -30.1608 146.9554 146° Southeast 289 333 30,200  Level Aus ATC (RADAR)
03:51AM -30.1955 146.9809 148° Southeast 292 336 30,200  Level Aus ATC (RADAR)
03:52AM -30.2681 147.0373 146° Southeast 291 335 30,200  Level Aus ATC (RADAR)
03:53AM -30.2965 147.0587 147° Southeast 291 335 30,200  Level Aus ATC (RADAR)
03:53AM -30.3518 147.1020 146° Southeast 290 334 30,200  Level Aus ATC (RADAR)
03:54AM -30.3795 147.1237 146° Southeast 290 334 30,200  Level Aus ATC (RADAR)
03:54AM -30.4186 147.1539 146° Southeast 290 334 30,200  Level Aus ATC (RADAR)
03:56AM -30.4921 147.2092 147° Southeast 291 335 30,200  Level Aus ATC (RADAR)
03:56AM -30.5341 147.2384 149° Southeast 295 339 30,200  Level Aus ATC (RADAR)
03:57AM -30.5959 147.2855 147° Southeast 293 337 30,200  Level Aus ATC (RADAR)
03:58AM -30.6465 147.3242 147° Southeast 292 336 30,200  Level Aus ATC (RADAR)
03:59AM -30.7104 147.3764 145° Southeast 285 328 30,200  Level Aus ATC (RADAR)
03:59AM -30.7429 147.4020 146° Southeast 284 327 30,200  Level Aus ATC (RADAR)
04:00AM -30.8001 147.4444 148° Southeast 288 331 30,200  Level Aus ATC (RADAR)
04:00AM -30.8225 147.4614 147° Southeast 289 333 30,200  Level Aus ATC (RADAR)
04:01AM -30.8652 147.4964 145° Southeast 286 329 30,200  Level Aus ATC (RADAR)
04:02AM -30.9296 147.5486 145° Southeast 288 331 30,200 -120 Level Aus ATC (RADAR)
04:03AM -30.9802 147.5879 146° Southeast 292 336 30,000 -600 Descending Aus ATC (RADAR)
04:04AM -31.0401 147.6342 146° Southeast 309 356 29,300 -900 Descending Aus ATC (RADAR)
04:04AM -31.0764 147.6651 144° Southeast 320 368 28,800 -1,020 Descending Aus ATC (RADAR)
04:05AM -31.1399 147.7156 146° Southeast 330 380 28,000 -900 Descending Aus ATC (RADAR)
04:05AM -31.1726 147.7402 147° Southeast 332 382 27,700 -1,020 Descending Aus ATC (RADAR)
04:06AM -31.2116 147.7711 146° Southeast 337 388 27,100 -1,020 Descending Aus ATC (RADAR)
04:07AM -31.2813 147.8315 143° Southeast 338 389 26,300 -1,020 Descending Aus ATC (RADAR)
04:07AM -31.3169 147.8643 142° Southeast 328 377 25,700 -1,320 Descending Aus ATC (RADAR)
04:08AM -31.3911 147.9154 150° Southeast 307 353 24,400 -1,320 Descending Aus ATC (RADAR)
04:09AM -31.4140 147.9318 149° Southeast 295 339 24,000 -1,320 Descending Aus ATC (RADAR)
04:09AM -31.4473 147.9591 145° Southeast 291 335 23,300 -1,500 Descending Aus ATC (RADAR)
04:10AM -31.5223 148.0155 147° Southeast 298 343 21,700 -1,500 Descending Aus ATC (RADAR)
04:11AM -31.5494 148.0393 143° Southeast 273 314 21,000 -1,560 Descending Aus ATC (RADAR)
04:12AM -31.6130 148.0878 147° Southeast 275 316 19,400 -1,680 Descending Aus ATC (RADAR)
04:12AM -31.6395 148.1102 144° Southeast 278 320 18,700 -1,680 Descending Aus ATC (RADAR)
04:13AM -31.6810 148.1495 141° Southeast 284 327 17,600 -2,040 Descending Aus ATC (RADAR)
04:16AM -31.8688 148.2939 147° Southeast 272 313 11,400 -2,220 Descending Aus ATC (RADAR)
04:16AM -31.8875 148.3085 146° Southeast 257 296 10,500 -2,700 Descending Aus ATC (RADAR)
04:19AM -32.2167 148.5748 295° West -3,480 Descending Aus ATC (Calculated)
04:22AM -32.2167 148.5747 141° Southeast  Level Estimated
04:23AM -32.2167 148.5747 140° Southeast  Level Estimated
04:24AM -32.2167 148.5747 140° Southeast  Level Estimated
04:25AM -32.2167 148.5747 140° Southeast  Level Estimated
04:26AM -32.2167 148.5747 321° Northwest  Level Estimated
04:27AM -32.2167 148.5747 321° Northwest  Level Estimated
04:28AM -32.2167 148.5747 321° Northwest  Level Estimated
04:29AM -32.2167 148.5747 321° Northwest  Level Estimated
04:30AM -32.2167 148.5747 321° Northwest  Level Estimated
04:31AM -32.2167 148.5747 321° Northwest  Level Estimated
04:32AM -32.2167 148.5747 321° Northwest  Level Estimated
04:33AM -32.2167 148.5747 321° Northwest  Level Estimated
04:34AM -32.2167 148.5747 321° Northwest  Level Estimated
04:35AM -32.2167 148.5747 321° Northwest  Level Estimated
04:36AM -32.2167 148.5747 321° Northwest  Level Estimated
04:37AM -32.2167 148.5747 321° Northwest  Level Estimated
04:38AM -32.2167 148.5747 321° Northwest  Level Estimated
04:39AM -32.2167 148.5747 321° Northwest  Level Estimated
04:40AM -32.2167 148.5747 321° Northwest  Level Estimated